sensor_id;sensor_type;location;lat;lon;timestamp;P1;durP1;ratioP1;P2;durP2;ratioP2
18265;SDS011;9259;48.194;16.322;2023-06-22T00:02:08;8.02;;;1.85;;
18265;SDS011;9259;48.194;16.322;2023-06-22T00:04:36;6.85;;;1.77;;
18265;SDS011;9259;48.194;16.322;2023-06-22T00:07:03;6.80;;;2.67;;
18265;SDS011;9259;48.194;16.322;2023-06-22T00:09:31;6.28;;;2.40;;
18265;SDS011;9259;48.194;16.322;2023-06-22T00:11:59;4.88;;;2.40;;
18265;SDS011;9259;48.194;16.322;2023-06-22T00:14:27;5.03;;;2.90;;
18265;SDS011;9259;48.194;16.322;2023-06-22T00:16:56;5.28;;;2.55;;
18265;SDS011;9259;48.194;16.322;2023-06-22T00:19:24;6.13;;;2.55;;
18265;SDS011;9259;48.194;16.322;2023-06-22T00:21:52;8.68;;;2.65;;
18265;SDS011;9259;48.194;16.322;2023-06-22T00:24:19;5.30;;;2.42;;
18265;SDS011;9259;48.194;16.322;2023-06-22T00:26:47;8.25;;;2.10;;
18265;SDS011;9259;48.194;16.322;2023-06-22T00:29:15;7.55;;;2.83;;
18265;SDS011;9259;48.194;16.322;2023-06-22T00:31:44;8.65;;;2.60;;
18265;SDS011;9259;48.194;16.322;2023-06-22T00:34:12;5.70;;;2.20;;
18265;SDS011;9259;48.194;16.322;2023-06-22T00:36:41;5.18;;;2.53;;
18265;SDS011;9259;48.194;16.322;2023-06-22T00:39:08;4.70;;;2.20;;
18265;SDS011;9259;48.194;16.322;2023-06-22T00:41:36;5.57;;;2.40;;
18265;SDS011;9259;48.194;16.322;2023-06-22T00:44:04;6.65;;;2.10;;
18265;SDS011;9259;48.194;16.322;2023-06-22T00:46:32;4.60;;;2.22;;
18265;SDS011;9259;48.194;16.322;2023-06-22T00:49:00;8.00;;;2.60;;
18265;SDS011;9259;48.194;16.322;2023-06-22T00:51:30;5.28;;;2.50;;
18265;SDS011;9259;48.194;16.322;2023-06-22T00:53:58;6.28;;;2.42;;
18265;SDS011;9259;48.194;16.322;2023-06-22T00:56:26;5.95;;;2.45;;
18265;SDS011;9259;48.194;16.322;2023-06-22T00:58:55;5.07;;;2.45;;
18265;SDS011;9259;48.194;16.322;2023-06-22T01:01:25;7.25;;;2.42;;
18265;SDS011;9259;48.194;16.322;2023-06-22T01:03:52;5.25;;;2.25;;
18265;SDS011;9259;48.194;16.322;2023-06-22T01:06:26;4.85;;;2.65;;
18265;SDS011;9259;48.194;16.322;2023-06-22T01:09:07;7.93;;;2.47;;
18265;SDS011;9259;48.194;16.322;2023-06-22T01:11:41;7.47;;;2.33;;
18265;SDS011;9259;48.194;16.322;2023-06-22T01:14:14;6.70;;;2.25;;
18265;SDS011;9259;48.194;16.322;2023-06-22T01:16:50;6.80;;;2.50;;
18265;SDS011;9259;48.194;16.322;2023-06-22T01:19:26;6.72;;;2.65;;
18265;SDS011;9259;48.194;16.322;2023-06-22T01:22:03;8.85;;;2.30;;
18265;SDS011;9259;48.194;16.322;2023-06-22T01:24:41;3.65;;;2.10;;
18265;SDS011;9259;48.194;16.322;2023-06-22T01:27:23;10.68;;;2.25;;
18265;SDS011;9259;48.194;16.322;2023-06-22T01:30:01;3.88;;;2.10;;
18265;SDS011;9259;48.194;16.322;2023-06-22T01:32:31;5.78;;;2.28;;
18265;SDS011;9259;48.194;16.322;2023-06-22T01:35:03;8.35;;;2.25;;
18265;SDS011;9259;48.194;16.322;2023-06-22T01:37:33;4.88;;;2.58;;
18265;SDS011;9259;48.194;16.322;2023-06-22T01:40:02;3.83;;;1.92;;
18265;SDS011;9259;48.194;16.322;2023-06-22T01:42:31;6.22;;;2.15;;
18265;SDS011;9259;48.194;16.322;2023-06-22T01:44:58;6.07;;;2.30;;
18265;SDS011;9259;48.194;16.322;2023-06-22T01:47:28;8.02;;;2.88;;
18265;SDS011;9259;48.194;16.322;2023-06-22T01:49:55;4.05;;;2.00;;
18265;SDS011;9259;48.194;16.322;2023-06-22T01:52:23;7.15;;;2.50;;
18265;SDS011;9259;48.194;16.322;2023-06-22T01:54:50;7.32;;;2.75;;
18265;SDS011;9259;48.194;16.322;2023-06-22T01:57:18;3.88;;;2.00;;
18265;SDS011;9259;48.194;16.322;2023-06-22T01:59:48;5.85;;;2.47;;
18265;SDS011;9259;48.194;16.322;2023-06-22T02:02:24;7.97;;;2.42;;
18265;SDS011;9259;48.194;16.322;2023-06-22T02:04:59;5.68;;;2.38;;
18265;SDS011;9259;48.194;16.322;2023-06-22T02:07:32;6.50;;;1.85;;
18265;SDS011;9259;48.194;16.322;2023-06-22T02:10:07;5.72;;;2.28;;
18265;SDS011;9259;48.194;16.322;2023-06-22T02:12:37;4.55;;;2.30;;
18265;SDS011;9259;48.194;16.322;2023-06-22T02:15:06;3.63;;;1.88;;
18265;SDS011;9259;48.194;16.322;2023-06-22T02:17:35;5.63;;;2.13;;
18265;SDS011;9259;48.194;16.322;2023-06-22T02:20:05;4.45;;;2.17;;
18265;SDS011;9259;48.194;16.322;2023-06-22T02:22:34;7.45;;;2.83;;
18265;SDS011;9259;48.194;16.322;2023-06-22T02:25:02;6.00;;;2.78;;
18265;SDS011;9259;48.194;16.322;2023-06-22T02:27:29;6.93;;;2.40;;
18265;SDS011;9259;48.194;16.322;2023-06-22T02:29:57;4.55;;;2.42;;
18265;SDS011;9259;48.194;16.322;2023-06-22T02:32:24;7.25;;;2.60;;
18265;SDS011;9259;48.194;16.322;2023-06-22T02:34:52;5.10;;;2.30;;
18265;SDS011;9259;48.194;16.322;2023-06-22T02:37:21;3.58;;;2.03;;
18265;SDS011;9259;48.194;16.322;2023-06-22T02:39:50;4.57;;;2.28;;
18265;SDS011;9259;48.194;16.322;2023-06-22T02:42:18;7.82;;;2.65;;
18265;SDS011;9259;48.194;16.322;2023-06-22T02:44:47;5.18;;;2.20;;
18265;SDS011;9259;48.194;16.322;2023-06-22T02:47:15;5.40;;;2.15;;
18265;SDS011;9259;48.194;16.322;2023-06-22T02:49:42;5.13;;;2.35;;
18265;SDS011;9259;48.194;16.322;2023-06-22T02:52:11;4.25;;;2.22;;
18265;SDS011;9259;48.194;16.322;2023-06-22T02:54:40;7.25;;;2.35;;
18265;SDS011;9259;48.194;16.322;2023-06-22T02:57:07;5.82;;;2.15;;
18265;SDS011;9259;48.194;16.322;2023-06-22T02:59:39;7.53;;;2.13;;
18265;SDS011;9259;48.194;16.322;2023-06-22T03:02:07;5.15;;;1.92;;
18265;SDS011;9259;48.194;16.322;2023-06-22T03:04:35;7.10;;;1.80;;
18265;SDS011;9259;48.194;16.322;2023-06-22T03:07:03;4.78;;;2.35;;
18265;SDS011;9259;48.194;16.322;2023-06-22T03:09:31;6.38;;;2.55;;
18265;SDS011;9259;48.194;16.322;2023-06-22T03:12:00;14.73;;;2.67;;
18265;SDS011;9259;48.194;16.322;2023-06-22T03:14:28;5.50;;;2.40;;
18265;SDS011;9259;48.194;16.322;2023-06-22T03:16:55;4.38;;;2.30;;
18265;SDS011;9259;48.194;16.322;2023-06-22T03:19:28;8.13;;;2.20;;
18265;SDS011;9259;48.194;16.322;2023-06-22T03:21:56;3.45;;;2.25;;
18265;SDS011;9259;48.194;16.322;2023-06-22T03:24:24;6.40;;;2.28;;
18265;SDS011;9259;48.194;16.322;2023-06-22T03:26:54;6.75;;;2.30;;
18265;SDS011;9259;48.194;16.322;2023-06-22T03:29:23;5.72;;;2.30;;
18265;SDS011;9259;48.194;16.322;2023-06-22T03:31:51;5.38;;;2.17;;
18265;SDS011;9259;48.194;16.322;2023-06-22T03:34:18;7.00;;;2.10;;
18265;SDS011;9259;48.194;16.322;2023-06-22T03:36:46;5.05;;;2.40;;
18265;SDS011;9259;48.194;16.322;2023-06-22T03:39:13;3.97;;;2.60;;
18265;SDS011;9259;48.194;16.322;2023-06-22T03:41:41;6.63;;;2.50;;
18265;SDS011;9259;48.194;16.322;2023-06-22T03:44:09;6.90;;;2.45;;
18265;SDS011;9259;48.194;16.322;2023-06-22T03:46:39;6.55;;;2.10;;
18265;SDS011;9259;48.194;16.322;2023-06-22T03:49:06;6.65;;;3.03;;
18265;SDS011;9259;48.194;16.322;2023-06-22T03:51:34;8.07;;;2.55;;
18265;SDS011;9259;48.194;16.322;2023-06-22T03:54:02;6.38;;;2.03;;
18265;SDS011;9259;48.194;16.322;2023-06-22T03:56:29;3.92;;;2.42;;
18265;SDS011;9259;48.194;16.322;2023-06-22T03:58:57;6.88;;;2.30;;
18265;SDS011;9259;48.194;16.322;2023-06-22T04:01:25;9.90;;;2.47;;
18265;SDS011;9259;48.194;16.322;2023-06-22T04:03:54;7.72;;;2.80;;
18265;SDS011;9259;48.194;16.322;2023-06-22T04:06:21;6.03;;;2.40;;
18265;SDS011;9259;48.194;16.322;2023-06-22T04:08:49;5.45;;;2.30;;
18265;SDS011;9259;48.194;16.322;2023-06-22T04:11:17;4.97;;;2.50;;
18265;SDS011;9259;48.194;16.322;2023-06-22T04:13:45;6.78;;;2.80;;
18265;SDS011;9259;48.194;16.322;2023-06-22T04:16:14;6.97;;;1.90;;
18265;SDS011;9259;48.194;16.322;2023-06-22T04:18:41;7.45;;;2.53;;
18265;SDS011;9259;48.194;16.322;2023-06-22T04:21:11;5.70;;;2.70;;
18265;SDS011;9259;48.194;16.322;2023-06-22T04:23:38;7.90;;;2.80;;
18265;SDS011;9259;48.194;16.322;2023-06-22T04:26:06;8.10;;;2.90;;
18265;SDS011;9259;48.194;16.322;2023-06-22T04:28:33;8.80;;;2.65;;
18265;SDS011;9259;48.194;16.322;2023-06-22T04:31:01;8.98;;;2.92;;
18265;SDS011;9259;48.194;16.322;2023-06-22T04:33:29;4.78;;;2.30;;
18265;SDS011;9259;48.194;16.322;2023-06-22T04:35:56;5.05;;;2.67;;
18265;SDS011;9259;48.194;16.322;2023-06-22T04:38:27;6.57;;;3.45;;
18265;SDS011;9259;48.194;16.322;2023-06-22T04:40:58;5.47;;;2.53;;
18265;SDS011;9259;48.194;16.322;2023-06-22T04:43:27;10.73;;;3.55;;
18265;SDS011;9259;48.194;16.322;2023-06-22T04:45:55;6.85;;;2.80;;
18265;SDS011;9259;48.194;16.322;2023-06-22T04:48:29;7.18;;;2.90;;
18265;SDS011;9259;48.194;16.322;2023-06-22T04:50:58;8.00;;;2.80;;
18265;SDS011;9259;48.194;16.322;2023-06-22T04:53:30;5.45;;;2.72;;
18265;SDS011;9259;48.194;16.322;2023-06-22T04:55:57;11.63;;;3.28;;
18265;SDS011;9259;48.194;16.322;2023-06-22T04:58:25;7.03;;;3.08;;
18265;SDS011;9259;48.194;16.322;2023-06-22T05:00:55;8.40;;;3.05;;
18265;SDS011;9259;48.194;16.322;2023-06-22T05:03:24;7.18;;;3.08;;
18265;SDS011;9259;48.194;16.322;2023-06-22T05:05:52;6.88;;;3.00;;
18265;SDS011;9259;48.194;16.322;2023-06-22T05:08:20;8.60;;;3.10;;
18265;SDS011;9259;48.194;16.322;2023-06-22T05:10:53;7.47;;;3.15;;
18265;SDS011;9259;48.194;16.322;2023-06-22T05:13:20;5.78;;;3.08;;
18265;SDS011;9259;48.194;16.322;2023-06-22T05:15:51;6.50;;;3.25;;
18265;SDS011;9259;48.194;16.322;2023-06-22T05:18:26;7.82;;;3.25;;
18265;SDS011;9259;48.194;16.322;2023-06-22T05:20:54;9.18;;;3.22;;
18265;SDS011;9259;48.194;16.322;2023-06-22T05:23:22;4.97;;;2.30;;
18265;SDS011;9259;48.194;16.322;2023-06-22T05:25:50;6.35;;;2.17;;
18265;SDS011;9259;48.194;16.322;2023-06-22T05:28:19;9.13;;;2.50;;
18265;SDS011;9259;48.194;16.322;2023-06-22T05:30:48;6.15;;;2.83;;
18265;SDS011;9259;48.194;16.322;2023-06-22T05:33:16;6.65;;;2.10;;
18265;SDS011;9259;48.194;16.322;2023-06-22T05:35:43;10.32;;;2.65;;
18265;SDS011;9259;48.194;16.322;2023-06-22T05:38:11;5.78;;;2.67;;
18265;SDS011;9259;48.194;16.322;2023-06-22T05:40:38;7.45;;;2.33;;
18265;SDS011;9259;48.194;16.322;2023-06-22T05:43:06;10.93;;;2.67;;
18265;SDS011;9259;48.194;16.322;2023-06-22T05:45:35;4.47;;;2.08;;
18265;SDS011;9259;48.194;16.322;2023-06-22T05:48:03;7.88;;;2.08;;
18265;SDS011;9259;48.194;16.322;2023-06-22T05:50:31;4.82;;;1.75;;
18265;SDS011;9259;48.194;16.322;2023-06-22T05:52:58;3.97;;;2.28;;
18265;SDS011;9259;48.194;16.322;2023-06-22T05:55:26;5.93;;;2.22;;
18265;SDS011;9259;48.194;16.322;2023-06-22T05:57:53;8.27;;;2.53;;
18265;SDS011;9259;48.194;16.322;2023-06-22T06:00:21;5.82;;;2.60;;
18265;SDS011;9259;48.194;16.322;2023-06-22T06:02:50;4.68;;;1.90;;
18265;SDS011;9259;48.194;16.322;2023-06-22T06:05:18;6.35;;;2.25;;
18265;SDS011;9259;48.194;16.322;2023-06-22T06:07:46;2.85;;;1.77;;
18265;SDS011;9259;48.194;16.322;2023-06-22T06:10:13;2.88;;;1.83;;
18265;SDS011;9259;48.194;16.322;2023-06-22T06:12:41;4.30;;;2.20;;
18265;SDS011;9259;48.194;16.322;2023-06-22T06:15:09;6.70;;;2.20;;
18265;SDS011;9259;48.194;16.322;2023-06-22T06:17:44;4.22;;;2.15;;
18265;SDS011;9259;48.194;16.322;2023-06-22T06:20:13;4.57;;;2.10;;
18265;SDS011;9259;48.194;16.322;2023-06-22T06:22:41;5.88;;;2.00;;
18265;SDS011;9259;48.194;16.322;2023-06-22T06:25:09;5.07;;;2.22;;
18265;SDS011;9259;48.194;16.322;2023-06-22T06:27:42;8.52;;;2.92;;
18265;SDS011;9259;48.194;16.322;2023-06-22T06:30:10;6.38;;;2.85;;
18265;SDS011;9259;48.194;16.322;2023-06-22T06:32:38;6.07;;;2.83;;
18265;SDS011;9259;48.194;16.322;2023-06-22T06:35:06;7.05;;;3.55;;
18265;SDS011;9259;48.194;16.322;2023-06-22T06:37:35;5.32;;;3.17;;
18265;SDS011;9259;48.194;16.322;2023-06-22T06:40:04;6.93;;;3.20;;
18265;SDS011;9259;48.194;16.322;2023-06-22T06:42:33;10.35;;;2.92;;
18265;SDS011;9259;48.194;16.322;2023-06-22T06:45:03;8.60;;;3.38;;
18265;SDS011;9259;48.194;16.322;2023-06-22T06:47:31;6.25;;;2.80;;
18265;SDS011;9259;48.194;16.322;2023-06-22T06:49:59;9.82;;;3.13;;
18265;SDS011;9259;48.194;16.322;2023-06-22T06:52:27;7.55;;;3.53;;
18265;SDS011;9259;48.194;16.322;2023-06-22T06:54:56;9.02;;;3.70;;
18265;SDS011;9259;48.194;16.322;2023-06-22T06:57:23;11.50;;;4.47;;
18265;SDS011;9259;48.194;16.322;2023-06-22T06:59:54;11.35;;;5.00;;
18265;SDS011;9259;48.194;16.322;2023-06-22T07:02:22;6.95;;;3.50;;
18265;SDS011;9259;48.194;16.322;2023-06-22T07:04:50;11.75;;;5.78;;
18265;SDS011;9259;48.194;16.322;2023-06-22T07:07:18;14.57;;;6.05;;
18265;SDS011;9259;48.194;16.322;2023-06-22T07:09:45;14.13;;;6.53;;
18265;SDS011;9259;48.194;16.322;2023-06-22T07:12:14;15.07;;;6.65;;
18265;SDS011;9259;48.194;16.322;2023-06-22T07:14:42;15.50;;;6.30;;
18265;SDS011;9259;48.194;16.322;2023-06-22T07:17:09;14.43;;;6.85;;
18265;SDS011;9259;48.194;16.322;2023-06-22T07:19:37;16.98;;;6.72;;
18265;SDS011;9259;48.194;16.322;2023-06-22T07:22:05;17.15;;;6.57;;
18265;SDS011;9259;48.194;16.322;2023-06-22T07:24:33;14.82;;;6.07;;
18265;SDS011;9259;48.194;16.322;2023-06-22T07:27:01;10.52;;;5.78;;
18265;SDS011;9259;48.194;16.322;2023-06-22T07:29:31;13.93;;;6.00;;
18265;SDS011;9259;48.194;16.322;2023-06-22T07:31:58;11.82;;;6.07;;
18265;SDS011;9259;48.194;16.322;2023-06-22T07:34:26;13.70;;;5.85;;
18265;SDS011;9259;48.194;16.322;2023-06-22T07:36:54;12.82;;;5.80;;
18265;SDS011;9259;48.194;16.322;2023-06-22T07:39:21;13.55;;;5.90;;
18265;SDS011;9259;48.194;16.322;2023-06-22T07:41:51;12.93;;;6.18;;
18265;SDS011;9259;48.194;16.322;2023-06-22T07:44:19;11.88;;;5.38;;
18265;SDS011;9259;48.194;16.322;2023-06-22T07:46:48;11.82;;;5.60;;
18265;SDS011;9259;48.194;16.322;2023-06-22T07:49:16;13.73;;;5.63;;
18265;SDS011;9259;48.194;16.322;2023-06-22T07:51:44;14.40;;;5.43;;
18265;SDS011;9259;48.194;16.322;2023-06-22T07:54:12;20.52;;;6.15;;
18265;SDS011;9259;48.194;16.322;2023-06-22T07:56:41;12.57;;;5.40;;
18265;SDS011;9259;48.194;16.322;2023-06-22T07:59:09;9.65;;;4.88;;
18265;SDS011;9259;48.194;16.322;2023-06-22T08:01:37;13.40;;;5.15;;
18265;SDS011;9259;48.194;16.322;2023-06-22T08:04:06;11.02;;;5.28;;
18265;SDS011;9259;48.194;16.322;2023-06-22T08:06:34;10.18;;;5.15;;
18265;SDS011;9259;48.194;16.322;2023-06-22T08:09:01;10.02;;;5.43;;
18265;SDS011;9259;48.194;16.322;2023-06-22T08:11:29;8.55;;;5.05;;
18265;SDS011;9259;48.194;16.322;2023-06-22T08:13:57;11.15;;;5.07;;
18265;SDS011;9259;48.194;16.322;2023-06-22T08:16:25;12.25;;;4.85;;
18265;SDS011;9259;48.194;16.322;2023-06-22T08:18:52;13.00;;;5.25;;
18265;SDS011;9259;48.194;16.322;2023-06-22T08:21:21;11.13;;;4.57;;
18265;SDS011;9259;48.194;16.322;2023-06-22T08:23:49;10.88;;;5.00;;
18265;SDS011;9259;48.194;16.322;2023-06-22T08:26:17;14.90;;;4.93;;
18265;SDS011;9259;48.194;16.322;2023-06-22T08:28:44;11.85;;;5.43;;
18265;SDS011;9259;48.194;16.322;2023-06-22T08:31:12;12.02;;;4.70;;
18265;SDS011;9259;48.194;16.322;2023-06-22T08:33:39;10.07;;;5.38;;
18265;SDS011;9259;48.194;16.322;2023-06-22T08:36:08;12.70;;;5.05;;
18265;SDS011;9259;48.194;16.322;2023-06-22T08:38:37;14.48;;;5.63;;
18265;SDS011;9259;48.194;16.322;2023-06-22T08:41:05;8.18;;;4.78;;
18265;SDS011;9259;48.194;16.322;2023-06-22T08:43:33;15.05;;;5.00;;
18265;SDS011;9259;48.194;16.322;2023-06-22T08:46:01;9.52;;;5.18;;
18265;SDS011;9259;48.194;16.322;2023-06-22T08:48:29;8.85;;;4.68;;
18265;SDS011;9259;48.194;16.322;2023-06-22T08:50:56;10.48;;;5.47;;
18265;SDS011;9259;48.194;16.322;2023-06-22T08:53:24;13.13;;;5.32;;
18265;SDS011;9259;48.194;16.322;2023-06-22T08:55:53;10.23;;;5.60;;
18265;SDS011;9259;48.194;16.322;2023-06-22T08:58:20;8.35;;;4.93;;
18265;SDS011;9259;48.194;16.322;2023-06-22T09:00:49;9.95;;;5.18;;
18265;SDS011;9259;48.194;16.322;2023-06-22T09:03:18;9.40;;;5.05;;
18265;SDS011;9259;48.194;16.322;2023-06-22T09:05:46;10.85;;;5.82;;
18265;SDS011;9259;48.194;16.322;2023-06-22T09:08:13;10.23;;;5.43;;
18265;SDS011;9259;48.194;16.322;2023-06-22T09:10:41;8.55;;;4.30;;
18265;SDS011;9259;48.194;16.322;2023-06-22T09:13:10;13.50;;;4.85;;
18265;SDS011;9259;48.194;16.322;2023-06-22T09:15:38;8.82;;;4.57;;
18265;SDS011;9259;48.194;16.322;2023-06-22T09:18:06;10.43;;;4.72;;
18265;SDS011;9259;48.194;16.322;2023-06-22T09:20:33;16.33;;;4.50;;
18265;SDS011;9259;48.194;16.322;2023-06-22T09:23:01;9.85;;;4.70;;
18265;SDS011;9259;48.194;16.322;2023-06-22T09:25:29;12.05;;;5.20;;
18265;SDS011;9259;48.194;16.322;2023-06-22T09:27:56;7.25;;;4.03;;
18265;SDS011;9259;48.194;16.322;2023-06-22T09:30:25;12.38;;;5.22;;
18265;SDS011;9259;48.194;16.322;2023-06-22T09:32:53;9.93;;;5.00;;
18265;SDS011;9259;48.194;16.322;2023-06-22T09:35:20;9.80;;;4.18;;
18265;SDS011;9259;48.194;16.322;2023-06-22T09:37:48;9.38;;;4.80;;
18265;SDS011;9259;48.194;16.322;2023-06-22T09:40:16;11.60;;;4.78;;
18265;SDS011;9259;48.194;16.322;2023-06-22T09:42:43;9.13;;;4.82;;
18265;SDS011;9259;48.194;16.322;2023-06-22T09:45:11;10.50;;;5.10;;
18265;SDS011;9259;48.194;16.322;2023-06-22T09:47:40;9.70;;;5.30;;
18265;SDS011;9259;48.194;16.322;2023-06-22T09:50:08;10.15;;;4.88;;
18265;SDS011;9259;48.194;16.322;2023-06-22T09:52:36;10.13;;;4.63;;
18265;SDS011;9259;48.194;16.322;2023-06-22T09:55:03;11.35;;;4.97;;
18265;SDS011;9259;48.194;16.322;2023-06-22T09:57:31;9.10;;;5.38;;
18265;SDS011;9259;48.194;16.322;2023-06-22T09:59:59;10.40;;;4.75;;
18265;SDS011;9259;48.194;16.322;2023-06-22T10:02:27;7.00;;;4.45;;
18265;SDS011;9259;48.194;16.322;2023-06-22T10:04:56;9.43;;;4.57;;
18265;SDS011;9259;48.194;16.322;2023-06-22T10:07:24;7.97;;;4.00;;
18265;SDS011;9259;48.194;16.322;2023-06-22T10:09:51;8.35;;;4.85;;
18265;SDS011;9259;48.194;16.322;2023-06-22T10:12:19;10.18;;;5.47;;
18265;SDS011;9259;48.194;16.322;2023-06-22T10:14:46;8.25;;;4.60;;
18265;SDS011;9259;48.194;16.322;2023-06-22T10:17:14;15.05;;;4.82;;
18265;SDS011;9259;48.194;16.322;2023-06-22T10:19:42;11.65;;;4.72;;
18265;SDS011;9259;48.194;16.322;2023-06-22T10:22:10;7.47;;;4.25;;
18265;SDS011;9259;48.194;16.322;2023-06-22T10:24:38;7.15;;;4.47;;
18265;SDS011;9259;48.194;16.322;2023-06-22T10:27:10;7.47;;;4.53;;
18265;SDS011;9259;48.194;16.322;2023-06-22T10:29:37;7.72;;;4.05;;
18265;SDS011;9259;48.194;16.322;2023-06-22T10:32:05;9.60;;;4.15;;
18265;SDS011;9259;48.194;16.322;2023-06-22T10:34:33;6.88;;;3.92;;
18265;SDS011;9259;48.194;16.322;2023-06-22T10:37:01;8.13;;;3.72;;
18265;SDS011;9259;48.194;16.322;2023-06-22T10:39:30;7.68;;;3.85;;
18265;SDS011;9259;48.194;16.322;2023-06-22T10:41:57;8.80;;;2.83;;
18265;SDS011;9259;48.194;16.322;2023-06-22T10:44:27;6.00;;;2.78;;
18265;SDS011;9259;48.194;16.322;2023-06-22T10:46:55;6.07;;;2.58;;
18265;SDS011;9259;48.194;16.322;2023-06-22T10:49:22;5.07;;;3.00;;
18265;SDS011;9259;48.194;16.322;2023-06-22T10:51:50;5.80;;;2.97;;
18265;SDS011;9259;48.194;16.322;2023-06-22T10:54:18;6.95;;;2.78;;
18265;SDS011;9259;48.194;16.322;2023-06-22T10:56:47;6.00;;;2.60;;
18265;SDS011;9259;48.194;16.322;2023-06-22T10:59:14;3.92;;;2.35;;
18265;SDS011;9259;48.194;16.322;2023-06-22T11:01:42;5.47;;;2.63;;
18265;SDS011;9259;48.194;16.322;2023-06-22T11:04:10;5.80;;;2.60;;
18265;SDS011;9259;48.194;16.322;2023-06-22T11:06:37;4.97;;;2.25;;
18265;SDS011;9259;48.194;16.322;2023-06-22T11:09:05;3.58;;;2.40;;
18265;SDS011;9259;48.194;16.322;2023-06-22T11:11:32;4.53;;;2.38;;
18265;SDS011;9259;48.194;16.322;2023-06-22T11:14:02;5.55;;;2.20;;
18265;SDS011;9259;48.194;16.322;2023-06-22T11:16:29;4.88;;;2.95;;
18265;SDS011;9259;48.194;16.322;2023-06-22T11:18:57;6.00;;;2.60;;
18265;SDS011;9259;48.194;16.322;2023-06-22T11:21:24;5.55;;;2.30;;
18265;SDS011;9259;48.194;16.322;2023-06-22T11:23:52;6.80;;;2.70;;
18265;SDS011;9259;48.194;16.322;2023-06-22T11:26:19;5.45;;;3.38;;
18265;SDS011;9259;48.194;16.322;2023-06-22T11:28:47;7.72;;;3.13;;
18265;SDS011;9259;48.194;16.322;2023-06-22T11:31:16;8.32;;;3.30;;
18265;SDS011;9259;48.194;16.322;2023-06-22T11:33:44;5.85;;;3.40;;
18265;SDS011;9259;48.194;16.322;2023-06-22T11:36:13;7.40;;;2.75;;
18265;SDS011;9259;48.194;16.322;2023-06-22T11:38:41;5.45;;;3.03;;
18265;SDS011;9259;48.194;16.322;2023-06-22T11:41:09;7.05;;;2.75;;
18265;SDS011;9259;48.194;16.322;2023-06-22T11:43:37;6.25;;;2.75;;
18265;SDS011;9259;48.194;16.322;2023-06-22T11:46:05;6.45;;;3.03;;
18265;SDS011;9259;48.194;16.322;2023-06-22T11:48:34;4.80;;;2.85;;
18265;SDS011;9259;48.194;16.322;2023-06-22T11:51:02;12.15;;;3.63;;
18265;SDS011;9259;48.194;16.322;2023-06-22T11:53:31;4.85;;;2.60;;
18265;SDS011;9259;48.194;16.322;2023-06-22T11:56:00;7.53;;;3.33;;
18265;SDS011;9259;48.194;16.322;2023-06-22T11:58:27;5.38;;;2.58;;
18265;SDS011;9259;48.194;16.322;2023-06-22T12:00:55;6.43;;;2.65;;
18265;SDS011;9259;48.194;16.322;2023-06-22T12:03:22;6.55;;;2.85;;
18265;SDS011;9259;48.194;16.322;2023-06-22T12:05:51;5.75;;;2.35;;
18265;SDS011;9259;48.194;16.322;2023-06-22T12:08:19;6.40;;;2.42;;
18265;SDS011;9259;48.194;16.322;2023-06-22T12:10:47;8.70;;;2.60;;
18265;SDS011;9259;48.194;16.322;2023-06-22T12:13:15;6.13;;;2.40;;
18265;SDS011;9259;48.194;16.322;2023-06-22T12:15:43;4.40;;;2.22;;
18265;SDS011;9259;48.194;16.322;2023-06-22T12:18:10;4.47;;;2.72;;
18265;SDS011;9259;48.194;16.322;2023-06-22T12:20:40;6.00;;;2.58;;
18265;SDS011;9259;48.194;16.322;2023-06-22T12:23:09;5.07;;;2.45;;
18265;SDS011;9259;48.194;16.322;2023-06-22T12:25:36;6.03;;;2.90;;
18265;SDS011;9259;48.194;16.322;2023-06-22T12:28:04;6.25;;;3.03;;
18265;SDS011;9259;48.194;16.322;2023-06-22T12:30:32;5.22;;;2.50;;
18265;SDS011;9259;48.194;16.322;2023-06-22T12:32:59;5.45;;;2.50;;
18265;SDS011;9259;48.194;16.322;2023-06-22T12:35:27;10.18;;;2.42;;
18265;SDS011;9259;48.194;16.322;2023-06-22T12:37:55;4.88;;;2.35;;
18265;SDS011;9259;48.194;16.322;2023-06-22T12:40:24;4.57;;;2.50;;
18265;SDS011;9259;48.194;16.322;2023-06-22T12:42:52;7.72;;;2.40;;
18265;SDS011;9259;48.194;16.322;2023-06-22T12:45:19;5.75;;;2.30;;
18265;SDS011;9259;48.194;16.322;2023-06-22T12:47:47;7.40;;;2.63;;
18265;SDS011;9259;48.194;16.322;2023-06-22T12:50:15;4.50;;;2.67;;
18265;SDS011;9259;48.194;16.322;2023-06-22T12:52:43;4.63;;;2.47;;
18265;SDS011;9259;48.194;16.322;2023-06-22T12:55:10;4.70;;;2.58;;
18265;SDS011;9259;48.194;16.322;2023-06-22T12:57:39;3.72;;;2.38;;
18265;SDS011;9259;48.194;16.322;2023-06-22T13:00:07;6.63;;;2.90;;
18265;SDS011;9259;48.194;16.322;2023-06-22T13:02:35;4.20;;;2.50;;
18265;SDS011;9259;48.194;16.322;2023-06-22T13:05:03;3.05;;;2.33;;
18265;SDS011;9259;48.194;16.322;2023-06-22T13:07:31;8.02;;;2.58;;
18265;SDS011;9259;48.194;16.322;2023-06-22T13:09:59;4.47;;;2.40;;
18265;SDS011;9259;48.194;16.322;2023-06-22T13:12:26;4.78;;;2.53;;
18265;SDS011;9259;48.194;16.322;2023-06-22T13:14:55;5.55;;;2.88;;
18265;SDS011;9259;48.194;16.322;2023-06-22T13:17:23;5.85;;;3.40;;
18265;SDS011;9259;48.194;16.322;2023-06-22T13:19:51;5.63;;;3.13;;
18265;SDS011;9259;48.194;16.322;2023-06-22T13:22:26;7.07;;;2.63;;
18265;SDS011;9259;48.194;16.322;2023-06-22T13:24:54;8.02;;;3.15;;
18265;SDS011;9259;48.194;16.322;2023-06-22T13:27:22;4.68;;;2.90;;
18265;SDS011;9259;48.194;16.322;2023-06-22T13:29:50;6.45;;;3.00;;
18265;SDS011;9259;48.194;16.322;2023-06-22T13:32:19;4.90;;;2.90;;
18265;SDS011;9259;48.194;16.322;2023-06-22T13:34:46;7.10;;;2.92;;
18265;SDS011;9259;48.194;16.322;2023-06-22T13:37:14;3.50;;;2.70;;
18265;SDS011;9259;48.194;16.322;2023-06-22T13:39:41;5.28;;;2.83;;
18265;SDS011;9259;48.194;16.322;2023-06-22T13:42:09;4.53;;;2.70;;
18265;SDS011;9259;48.194;16.322;2023-06-22T13:44:37;4.32;;;2.80;;
18265;SDS011;9259;48.194;16.322;2023-06-22T13:47:05;6.00;;;3.20;;
18265;SDS011;9259;48.194;16.322;2023-06-22T13:49:34;5.88;;;3.00;;
18265;SDS011;9259;48.194;16.322;2023-06-22T13:52:02;5.43;;;2.70;;
18265;SDS011;9259;48.194;16.322;2023-06-22T13:54:32;7.95;;;3.45;;
18265;SDS011;9259;48.194;16.322;2023-06-22T13:56:59;6.47;;;3.30;;
18265;SDS011;9259;48.194;16.322;2023-06-22T13:59:27;9.20;;;2.58;;
18265;SDS011;9259;48.194;16.322;2023-06-22T14:01:55;5.00;;;3.10;;
18265;SDS011;9259;48.194;16.322;2023-06-22T14:04:22;5.95;;;3.25;;
18265;SDS011;9259;48.194;16.322;2023-06-22T14:06:51;5.82;;;3.10;;
18265;SDS011;9259;48.194;16.322;2023-06-22T14:09:19;7.82;;;3.13;;
18265;SDS011;9259;48.194;16.322;2023-06-22T14:11:47;7.93;;;3.00;;
18265;SDS011;9259;48.194;16.322;2023-06-22T14:14:14;8.02;;;3.40;;
18265;SDS011;9259;48.194;16.322;2023-06-22T14:16:42;4.72;;;2.75;;
18265;SDS011;9259;48.194;16.322;2023-06-22T14:19:09;6.78;;;3.13;;
18265;SDS011;9259;48.194;16.322;2023-06-22T14:21:37;7.25;;;3.08;;
18265;SDS011;9259;48.194;16.322;2023-06-22T14:24:06;7.82;;;3.28;;
18265;SDS011;9259;48.194;16.322;2023-06-22T14:26:34;7.63;;;2.95;;
18265;SDS011;9259;48.194;16.322;2023-06-22T14:29:01;7.70;;;3.13;;
18265;SDS011;9259;48.194;16.322;2023-06-22T14:31:29;6.40;;;3.40;;
18265;SDS011;9259;48.194;16.322;2023-06-22T14:33:57;4.63;;;2.67;;
18265;SDS011;9259;48.194;16.322;2023-06-22T14:36:24;6.35;;;3.25;;
18265;SDS011;9259;48.194;16.322;2023-06-22T14:38:52;6.88;;;3.25;;
18265;SDS011;9259;48.194;16.322;2023-06-22T14:41:21;4.43;;;3.22;;
18265;SDS011;9259;48.194;16.322;2023-06-22T14:43:49;7.03;;;3.60;;
18265;SDS011;9259;48.194;16.322;2023-06-22T14:46:17;8.50;;;3.25;;
18265;SDS011;9259;48.194;16.322;2023-06-22T14:48:45;6.35;;;2.90;;
18265;SDS011;9259;48.194;16.322;2023-06-22T14:51:13;5.72;;;3.28;;
18265;SDS011;9259;48.194;16.322;2023-06-22T14:53:41;11.05;;;3.72;;